Time;durP1;ratioP1;P1;durP2;ratioP2;P2;SDS_P1;SDS_P2;PMS_P1;PMS_P2;Temp;Humidity;BMP_temperature;BMP_pressure;BME280_temperature;BME280_humidity;BME280_pressure;Samples;Min_cycle;Max_cycle;Signal;HPM_P1;HPM_P2
2021/03/25 00:01:39;;;;;;;79.38;30.83;;;6.00;99.90;;;;;;5125146;27;20035;-56
2021/03/25 00:04:05;;;;;;;83.47;29.35;;;6.10;99.90;;;;;;5130166;27;20031;-52
2021/03/25 00:06:33;;;;;;;82.07;31.42;;;6.10;99.90;;;;;;5131553;27;20446;-51
2021/03/25 00:08:58;;;;;;;72.40;31.02;;;6.30;99.90;;;;;;5125682;27;20027;-52
2021/03/25 00:11:24;;;;;;;78.68;31.50;;;6.30;99.90;;;;;;5132191;27;20103;-52
2021/03/25 00:13:50;;;;;;;74.95;29.63;;;6.20;99.90;;;;;;5132224;27;20031;-53
2021/03/25 00:16:16;;;;;;;79.22;29.73;;;6.30;99.90;;;;;;5128968;27;20033;-55
2021/03/25 00:18:42;;;;;;;81.78;31.92;;;6.30;99.90;;;;;;5124356;27;20102;-54
2021/03/25 00:21:10;;;;;;;80.03;31.67;;;6.30;99.90;;;;;;5132723;27;20098;-51
2021/03/25 00:23:36;;;;;;;84.20;31.05;;;6.30;99.90;;;;;;5132424;27;20027;-55
2021/03/25 00:26:01;;;;;;;72.13;28.73;;;6.30;99.90;;;;;;5132434;27;20019;-53
2021/03/25 00:28:27;;;;;;;67.70;28.42;;;6.20;99.90;;;;;;5130895;27;20507;-52
2021/03/25 00:30:53;;;;;;;72.88;27.58;;;6.10;99.90;;;;;;5128255;27;20023;-53
2021/03/25 00:33:20;;;;;;;65.47;26.92;;;5.80;99.90;;;;;;5132075;27;20102;-54
2021/03/25 00:35:47;;;;;;;73.97;29.17;;;5.60;99.90;;;;;;5126243;27;20076;-54
2021/03/25 00:38:14;;;;;;;71.30;28.63;;;5.40;99.90;;;;;;5125471;27;20047;-51
2021/03/25 00:40:40;;;;;;;74.35;28.00;;;5.20;99.90;;;;;;5130484;27;20019;-55
2021/03/25 00:43:08;;;;;;;78.20;29.05;;;5.30;99.90;;;;;;5130333;27;20035;-54
2021/03/25 00:45:41;;;;;;;78.00;30.23;;;5.40;99.90;;;;;;5129052;27;20059;-55
2021/03/25 00:48:07;;;;;;;81.68;31.02;;;5.50;99.90;;;;;;5130476;27;20019;-52
2021/03/25 00:50:39;;;;;;;74.70;29.35;;;5.60;99.90;;;;;;5130435;27;20030;-52
2021/03/25 00:53:07;;;;;;;81.75;30.25;;;5.60;99.90;;;;;;5128956;27;20027;-52
2021/03/25 00:55:32;;;;;;;82.10;29.50;;;5.60;99.90;;;;;;5131958;27;20393;-52
2021/03/25 00:57:58;;;;;;;85.07;33.80;;;5.70;99.90;;;;;;5131438;27;20031;-52
2021/03/25 01:00:27;;;;;;;73.88;30.35;;;5.70;99.90;;;;;;5126932;27;20037;-52
2021/03/25 01:02:53;;;;;;;78.13;31.98;;;5.60;99.90;;;;;;5130934;27;20047;-57
2021/03/25 01:05:21;;;;;;;83.72;30.35;;;5.40;99.90;;;;;;5130926;27;20038;-52
2021/03/25 01:07:46;;;;;;;76.40;29.55;;;5.30;99.90;;;;;;5131437;27;20024;-56
2021/03/25 01:10:26;;;;;;;85.95;30.80;;;5.30;99.90;;;;;;5130428;27;20015;-54
2021/03/25 01:12:52;;;;;;;78.75;32.42;;;5.30;99.90;;;;;;5132005;27;20575;-52
2021/03/25 01:15:18;;;;;;;83.95;32.42;;;5.30;99.90;;;;;;5124434;27;20106;-52
2021/03/25 01:17:55;;;;;;;85.40;34.08;;;5.30;99.90;;;;;;5127272;27;20054;-51
2021/03/25 01:20:26;;;;;;;73.22;29.67;;;5.40;99.90;;;;;;5129064;27;20049;-53
2021/03/25 01:22:52;;;;;;;85.85;32.03;;;5.40;99.90;;;;;;5129698;27;20427;-52
2021/03/25 01:25:19;;;;;;;86.03;30.65;;;5.30;99.90;;;;;;5130928;27;20055;-52
2021/03/25 01:27:46;;;;;;;95.15;33.38;;;5.20;99.90;;;;;;5129583;27;20524;-52
2021/03/25 01:30:13;;;;;;;85.65;31.77;;;5.10;99.90;;;;;;5117592;27;20477;-52
2021/03/25 01:32:38;;;;;;;102.72;34.30;;;5.00;99.90;;;;;;5130075;27;20044;-52
2021/03/25 01:35:08;;;;;;;83.22;32.28;;;4.90;99.90;;;;;;5124559;27;20019;-53
2021/03/25 01:37:33;;;;;;;98.68;32.72;;;4.90;99.90;;;;;;5126612;27;20151;-51
2021/03/25 01:39:59;;;;;;;81.50;31.42;;;4.90;99.90;;;;;;5123032;27;20102;-53
2021/03/25 01:42:29;;;;;;;82.88;31.23;;;4.80;99.90;;;;;;5125936;27;20502;-56
2021/03/25 01:44:55;;;;;;;75.60;29.08;;;4.70;99.90;;;;;;5130746;27;20019;-56
2021/03/25 01:47:21;;;;;;;78.47;30.40;;;4.80;99.90;;;;;;5130366;27;20023;-54
2021/03/25 01:49:47;;;;;;;85.88;33.85;;;4.80;99.90;;;;;;5125522;27;20677;-51
2021/03/25 01:52:27;;;;;;;96.90;35.15;;;4.90;99.90;;;;;;5131069;27;20036;-51
2021/03/25 01:55:48;;;;;;;93.45;35.15;;;4.90;99.90;;;;;;5126580;28;20370;-53
2021/03/25 01:58:31;;;;;;;87.90;30.92;;;4.80;99.90;;;;;;5047436;28;20047;-55
2021/03/25 02:01:15;;;;;;;77.82;33.88;;;4.80;99.90;;;;;;5123315;28;20038;-51
2021/03/25 02:04:02;;;;;;;83.75;32.08;;;4.90;99.90;;;;;;5123092;28;20038;-53
2021/03/25 02:07:00;;;;;;;87.45;29.85;;;4.90;99.90;;;;;;5128496;28;20042;-52
2021/03/25 02:10:00;;;;;;;86.07;30.23;;;5.00;99.90;;;;;;5124600;28;20026;-54
2021/03/25 02:13:00;;;;;;;85.47;31.67;;;5.00;99.90;;;;;;5130661;28;20031;-54
2021/03/25 02:15:51;;;;;;;86.07;31.05;;;4.90;99.90;;;;;;5104541;28;20039;-54
2021/03/25 02:18:36;;;;;;;70.70;28.77;;;4.70;99.90;;;;;;5129582;28;20035;-54
2021/03/25 02:21:55;;;;;;;74.93;27.80;;;4.70;99.90;;;;;;5126224;28;20057;-52
2021/03/25 02:24:33;;;;;;;74.32;28.45;;;4.70;99.90;;;;;;5043433;28;20124;-52
2021/03/25 02:27:11;;;;;;;75.55;27.50;;;4.80;99.90;;;;;;5120701;28;20083;-55
2021/03/25 02:29:58;;;;;;;69.95;26.67;;;4.80;99.90;;;;;;5126883;28;20420;-54
2021/03/25 02:32:31;;;;;;;72.05;27.35;;;4.90;99.90;;;;;;5125504;28;20023;-53
2021/03/25 02:35:02;;;;;;;91.13;28.03;;;4.90;99.90;;;;;;5133922;27;20020;-51
2021/03/25 02:37:31;;;;;;;73.40;25.73;;;4.90;99.90;;;;;;5134773;27;20027;-51
2021/03/25 02:40:31;;;;;;;66.50;26.73;;;4.90;99.90;;;;;;5133035;27;20031;-54
2021/03/25 02:43:08;;;;;;;67.18;25.17;;;4.90;99.90;;;;;;5131966;27;20035;-52
2021/03/25 02:45:39;;;;;;;69.80;26.80;;;5.00;99.90;;;;;;5125129;27;20080;-51
2021/03/25 02:48:14;;;;;;;61.17;25.08;;;5.00;99.90;;;;;;5128110;27;20122;-51
2021/03/25 02:50:52;;;;;;;59.92;24.70;;;5.10;99.90;;;;;;5131735;27;20031;-51
2021/03/25 02:53:38;;;;;;;64.40;25.13;;;5.10;99.90;;;;;;5128967;27;20107;-59
2021/03/25 02:56:21;;;;;;;61.30;26.50;;;5.00;99.90;;;;;;5129409;27;20035;-52
2021/03/25 02:58:54;;;;;;;69.45;25.85;;;4.90;99.90;;;;;;5130167;27;20034;-51
2021/03/25 03:01:20;;;;;;;60.50;23.45;;;4.70;99.90;;;;;;5121955;27;20051;-53
2021/03/25 03:03:58;;;;;;;67.60;25.25;;;4.70;99.90;;;;;;5132773;27;20030;-52
2021/03/25 03:06:29;;;;;;;60.22;25.02;;;4.60;99.90;;;;;;5128910;27;20554;-52
2021/03/25 03:08:56;;;;;;;61.55;24.55;;;4.60;99.90;;;;;;5133109;27;20019;-54
2021/03/25 03:11:25;;;;;;;58.47;24.80;;;4.70;99.90;;;;;;5130738;27;20154;-52
2021/03/25 03:13:58;;;;;;;65.60;26.35;;;4.60;99.90;;;;;;5125989;27;20064;-55
2021/03/25 03:16:33;;;;;;;62.55;26.33;;;4.60;99.90;;;;;;5127120;27;20072;-52
2021/03/25 03:19:43;;;;;;;69.13;26.35;;;4.50;99.90;;;;;;5132002;27;20037;-56
2021/03/25 03:22:09;;;;;;;53.90;23.38;;;4.40;99.90;;;;;;5124879;27;20583;-51
2021/03/25 03:24:37;;;;;;;65.68;27.20;;;4.50;99.90;;;;;;5129005;27;20489;-55
2021/03/25 03:27:14;;;;;;;54.28;23.08;;;4.50;99.90;;;;;;5130207;27;20020;-51
2021/03/25 03:29:43;;;;;;;58.60;22.88;;;4.60;99.90;;;;;;5132546;27;20023;-53
2021/03/25 03:32:14;;;;;;;52.35;22.70;;;4.70;99.90;;;;;;5132694;27;20027;-55
2021/03/25 03:34:43;;;;;;;53.95;23.40;;;4.70;99.90;;;;;;5133519;27;20543;-52
2021/03/25 03:37:42;;;;;;;56.42;23.60;;;4.70;99.90;;;;;;5133605;27;20084;-52
2021/03/25 03:40:19;;;;;;;63.70;24.48;;;4.60;99.90;;;;;;5122653;27;20430;-55
2021/03/25 03:42:46;;;;;;;56.58;22.88;;;4.50;99.90;;;;;;5133603;27;20052;-53
2021/03/25 03:45:17;;;;;;;54.15;23.73;;;4.30;99.90;;;;;;5132167;27;20027;-51
2021/03/25 03:47:44;;;;;;;56.75;24.27;;;4.20;99.90;;;;;;5127667;27;20122;-52
2021/03/25 03:50:18;;;;;;;64.18;23.95;;;4.20;99.90;;;;;;5131552;27;20047;-53
2021/03/25 03:52:48;;;;;;;61.53;25.03;;;4.30;99.90;;;;;;5120898;27;20050;-52
2021/03/25 03:55:16;;;;;;;57.13;23.92;;;4.30;99.90;;;;;;5131047;27;20467;-55
2021/03/25 03:57:48;;;;;;;52.20;21.48;;;4.40;99.90;;;;;;5132617;27;20408;-52
2021/03/25 04:00:32;;;;;;;58.58;24.30;;;4.40;99.90;;;;;;5130024;27;20038;-54
2021/03/25 04:03:30;;;;;;;63.55;23.77;;;4.40;99.90;;;;;;5132604;27;20031;-54
2021/03/25 04:06:06;;;;;;;60.38;22.95;;;4.40;99.90;;;;;;5124943;27;20035;-56
2021/03/25 04:08:54;;;;;;;56.85;23.23;;;4.30;99.90;;;;;;5131358;27;20059;-53
2021/03/25 04:11:39;;;;;;;68.40;23.52;;;4.40;99.90;;;;;;5132436;27;20049;-51
2021/03/25 04:14:18;;;;;;;54.28;23.48;;;4.40;99.90;;;;;;5131812;27;20054;-51
2021/03/25 04:16:46;;;;;;;52.55;23.58;;;4.40;99.90;;;;;;5129642;27;20113;-52
2021/03/25 04:19:38;;;;;;;53.22;21.35;;;4.50;99.90;;;;;;5127812;27;20102;-53
2021/03/25 04:22:08;;;;;;;54.10;22.08;;;4.60;99.90;;;;;;5131399;27;20030;-53
2021/03/25 04:24:53;;;;;;;53.10;21.98;;;4.70;99.90;;;;;;5131973;27;20034;-53
2021/03/25 04:27:33;;;;;;;54.78;23.70;;;4.80;99.90;;;;;;5106116;27;20030;-55
2021/03/25 04:30:15;;;;;;;52.50;24.15;;;4.90;99.90;;;;;;5131515;27;20023;-54
2021/03/25 04:32:43;;;;;;;67.18;24.85;;;4.90;99.90;;;;;;5130924;27;20106;-54
2021/03/25 04:35:09;;;;;;;57.88;21.80;;;4.90;99.90;;;;;;5131272;27;20019;-56
2021/03/25 04:37:35;;;;;;;55.85;22.25;;;4.90;99.90;;;;;;5132892;27;20072;-52
2021/03/25 04:40:06;;;;;;;61.55;24.67;;;4.80;99.90;;;;;;5129482;27;20039;-54
2021/03/25 04:42:32;;;;;;;59.83;24.80;;;4.80;99.90;;;;;;5131790;27;20052;-51
2021/03/25 04:45:14;;;;;;;60.67;24.13;;;4.80;99.90;;;;;;5129967;27;20027;-53
2021/03/25 04:47:46;;;;;;;59.35;23.60;;;4.70;99.90;;;;;;5127647;27;20064;-53
2021/03/25 04:50:25;;;;;;;64.25;25.13;;;4.70;99.90;;;;;;5121294;27;20019;-51
2021/03/25 04:53:01;;;;;;;64.82;24.98;;;4.60;99.90;;;;;;5125632;27;20030;-51
2021/03/25 04:55:27;;;;;;;62.88;25.48;;;4.70;99.90;;;;;;5122491;27;20023;-51
2021/03/25 04:58:00;;;;;;;68.90;28.15;;;4.70;99.90;;;;;;5131497;27;20074;-51
2021/03/25 05:00:32;;;;;;;75.50;28.47;;;4.70;99.90;;;;;;5126494;27;20122;-54
2021/03/25 05:03:01;;;;;;;64.40;27.00;;;4.80;99.90;;;;;;5129053;27;20083;-52
2021/03/25 05:05:29;;;;;;;61.42;27.00;;;4.80;99.90;;;;;;5130467;27;20023;-51
2021/03/25 05:08:07;;;;;;;72.32;26.88;;;4.80;99.90;;;;;;5123947;27;20575;-55
2021/03/25 05:10:39;;;;;;;69.03;24.88;;;4.80;99.90;;;;;;5131105;27;20102;-51
2021/03/25 05:13:17;;;;;;;63.22;25.58;;;4.90;99.90;;;;;;5120170;27;20042;-51
2021/03/25 05:15:43;;;;;;;50.85;22.75;;;4.90;99.90;;;;;;5124961;27;20015;-54
2021/03/25 05:18:24;;;;;;;62.92;23.45;;;5.00;99.90;;;;;;5129622;27;20046;-54
2021/03/25 05:21:07;;;;;;;59.90;23.27;;;5.10;99.90;;;;;;5131138;27;20110;-51
2021/03/25 05:23:46;;;;;;;56.58;24.35;;;5.20;99.90;;;;;;5131404;27;20027;-50
2021/03/25 05:26:39;;;;;;;53.08;23.75;;;5.30;99.90;;;;;;5111944;27;21592;-52
2021/03/25 05:29:07;;;;;;;55.80;23.35;;;5.40;99.90;;;;;;5108570;27;20039;-56
2021/03/25 05:31:36;;;;;;;60.50;23.75;;;5.40;99.90;;;;;;5130172;27;20076;-52
2021/03/25 05:34:05;;;;;;;57.33;24.70;;;5.50;99.90;;;;;;5130512;27;20031;-51
2021/03/25 05:36:31;;;;;;;51.30;21.95;;;5.50;99.90;;;;;;5131173;27;20527;-51
2021/03/25 05:38:58;;;;;;;55.50;23.25;;;5.40;99.90;;;;;;5129462;27;20396;-51
2021/03/25 05:41:43;;;;;;;57.58;22.13;;;5.30;99.90;;;;;;5129826;27;20038;-52
2021/03/25 05:44:30;;;;;;;54.25;23.33;;;5.30;99.90;;;;;;5122010;27;20024;-52
2021/03/25 05:47:10;;;;;;;55.88;23.90;;;5.20;99.90;;;;;;5122999;27;20458;-52
2021/03/25 05:50:06;;;;;;;53.13;23.27;;;5.30;99.90;;;;;;5122948;28;20392;-53
2021/03/25 05:52:58;;;;;;;58.53;22.52;;;5.30;99.90;;;;;;5121681;27;20024;-55
2021/03/25 05:55:49;;;;;;;61.97;25.95;;;5.30;99.90;;;;;;5118098;28;20035;-56
2021/03/25 05:58:33;;;;;;;53.28;21.98;;;5.40;99.90;;;;;;5123388;28;20035;-56
2021/03/25 06:01:15;;;;;;;53.58;22.73;;;5.50;99.90;;;;;;5124785;28;20084;-51
2021/03/25 06:03:56;;;;;;;56.88;23.25;;;5.60;99.90;;;;;;5105543;28;20068;-52
2021/03/25 06:06:35;;;;;;;52.90;23.52;;;5.70;99.90;;;;;;5120662;28;20023;-58
2021/03/25 06:09:40;;;;;;;65.88;24.88;;;5.80;99.90;;;;;;5123951;27;20027;-58
2021/03/25 06:12:38;;;;;;;64.97;22.85;;;5.80;99.90;;;;;;5120259;27;20039;-58
2021/03/25 06:15:33;;;;;;;60.92;23.23;;;5.90;99.90;;;;;;5072466;27;20118;-57
2021/03/25 06:18:56;;;;;;;55.88;24.10;;;5.90;99.90;;;;;;5128897;27;20019;-57
2021/03/25 06:21:52;;;;;;;58.85;22.33;;;5.90;99.90;;;;;;5044898;28;20033;-51
2021/03/25 06:24:38;;;;;;;51.53;22.85;;;5.90;99.90;;;;;;5044936;28;20055;-52
2021/03/25 06:27:23;;;;;;;55.83;22.98;;;6.00;99.90;;;;;;5115213;27;20027;-52
2021/03/25 06:29:53;;;;;;;55.20;24.98;;;6.10;99.90;;;;;;5128650;27;20500;-54
2021/03/25 06:32:41;;;;;;;61.28;27.65;;;6.20;99.90;;;;;;5125520;27;20051;-51
2021/03/25 06:35:14;;;;;;;58.92;24.95;;;6.30;99.90;;;;;;5132686;27;20523;-52
2021/03/25 06:37:43;;;;;;;85.40;34.03;;;6.30;99.90;;;;;;5127251;27;20511;-54
2021/03/25 06:40:20;;;;;;;89.38;35.45;;;6.40;99.90;;;;;;5129900;27;20038;-53
2021/03/25 06:43:21;;;;;;;86.30;34.85;;;6.50;99.90;;;;;;5127053;27;20401;-50
2021/03/25 06:46:11;;;;;;;104.90;36.22;;;6.70;99.90;;;;;;5049900;27;20040;-56
2021/03/25 06:48:43;;;;;;;89.43;36.50;;;6.80;99.90;;;;;;5130922;27;20035;-52
2021/03/25 06:51:20;;;;;;;99.15;39.63;;;6.90;99.90;;;;;;5134159;27;20023;-53
2021/03/25 06:53:47;;;;;;;94.40;40.97;;;7.00;99.90;;;;;;5132577;27;20027;-50
2021/03/25 06:56:16;;;;;;;103.32;39.60;;;7.10;99.90;;;;;;5128883;27;20038;-50
2021/03/25 06:58:53;;;;;;;105.95;39.70;;;7.20;99.90;;;;;;5125259;27;20024;-53
2021/03/25 07:01:37;;;;;;;97.03;38.42;;;7.20;99.90;;;;;;5124653;27;20032;-51
2021/03/25 07:04:10;;;;;;;99.07;39.15;;;7.30;99.90;;;;;;5123208;27;20027;-53
2021/03/25 07:06:37;;;;;;;103.90;42.45;;;7.40;99.90;;;;;;5122546;27;20031;-52
2021/03/25 07:09:04;;;;;;;96.10;42.17;;;7.40;99.90;;;;;;5124076;27;20103;-54
2021/03/25 07:11:31;;;;;;;100.43;42.25;;;7.50;99.90;;;;;;5126445;27;20027;-52
2021/03/25 07:14:05;;;;;;;94.95;39.80;;;7.50;99.90;;;;;;5133754;27;20075;-51
2021/03/25 07:16:35;;;;;;;97.75;40.70;;;7.60;99.90;;;;;;5126047;27;20034;-51
2021/03/25 07:19:03;;;;;;;100.57;44.83;;;7.70;99.90;;;;;;5132221;27;20441;-53
2021/03/25 07:21:32;;;;;;;95.43;42.88;;;7.70;99.90;;;;;;5129689;27;20389;-51
2021/03/25 07:24:00;;;;;;;104.65;44.88;;;7.80;99.90;;;;;;5132549;27;20069;-53
2021/03/25 07:26:37;;;;;;;110.28;46.13;;;7.80;99.90;;;;;;5131404;27;20582;-51
2021/03/25 07:29:06;;;;;;;117.47;49.53;;;8.00;99.90;;;;;;5132652;27;20102;-52
2021/03/25 07:31:38;;;;;;;116.20;50.15;;;8.00;99.90;;;;;;5129830;27;20015;-50
2021/03/25 07:34:05;;;;;;;123.15;50.90;;;8.10;99.90;;;;;;5127000;27;20030;-52
2021/03/25 07:36:47;;;;;;;117.80;48.92;;;8.20;99.90;;;;;;5132073;27;20019;-52
2021/03/25 07:39:12;;;;;;;120.13;51.05;;;8.20;99.90;;;;;;5133103;27;20482;-51
2021/03/25 07:41:44;;;;;;;120.53;52.10;;;8.30;99.90;;;;;;5131958;27;20858;-50
2021/03/25 07:44:32;;;;;;;130.73;52.63;;;8.30;99.90;;;;;;5124744;27;20035;-52
2021/03/25 07:47:01;;;;;;;121.75;48.72;;;8.40;99.90;;;;;;5108937;27;20028;-52
2021/03/25 07:49:38;;;;;;;128.77;53.70;;;8.50;99.90;;;;;;5126363;27;20020;-53
2021/03/25 07:52:30;;;;;;;129.77;55.10;;;8.50;99.90;;;;;;5122819;27;20019;-52
2021/03/25 07:55:13;;;;;;;115.80;51.63;;;8.70;99.90;;;;;;5123851;27;20030;-49
2021/03/25 07:57:42;;;;;;;119.03;51.25;;;8.70;99.90;;;;;;5126450;27;20050;-50
2021/03/25 08:00:19;;;;;;;126.05;55.30;;;8.80;99.90;;;;;;5127557;27;20024;-53
2021/03/25 08:02:45;;;;;;;121.15;53.90;;;8.90;99.90;;;;;;5122264;27;20030;-49
2021/03/25 08:05:21;;;;;;;121.72;52.22;;;9.00;99.90;;;;;;5132372;27;20172;-52
2021/03/25 08:07:49;;;;;;;114.82;51.90;;;9.10;99.90;;;;;;5127227;27;20380;-53
2021/03/25 08:10:36;;;;;;;121.40;52.40;;;9.10;99.90;;;;;;5131489;27;20023;-53
2021/03/25 08:13:19;;;;;;;123.15;53.95;;;9.30;99.90;;;;;;5129099;27;20485;-51
2021/03/25 08:15:47;;;;;;;124.15;55.38;;;9.30;99.90;;;;;;5121348;27;20057;-53
2021/03/25 08:18:19;;;;;;;130.02;53.63;;;9.20;99.90;;;;;;5128535;27;20517;-52
2021/03/25 08:21:18;;;;;;;118.65;54.47;;;9.20;99.90;;;;;;5130848;27;20369;-51
2021/03/25 08:23:52;;;;;;;122.57;54.33;;;9.20;99.90;;;;;;5130525;27;20038;-53
2021/03/25 08:26:30;;;;;;;134.02;62.13;;;9.20;99.90;;;;;;5127215;27;20053;-53
2021/03/25 08:29:11;;;;;;;122.72;55.35;;;9.30;99.90;;;;;;5127396;27;20155;-51
2021/03/25 08:32:02;;;;;;;120.25;53.38;;;9.40;99.90;;;;;;5130153;27;20027;-52
2021/03/25 08:34:42;;;;;;;119.05;53.33;;;9.50;99.90;;;;;;5114705;27;20130;-48
2021/03/25 08:37:58;;;;;;;133.02;53.33;;;9.50;99.90;;;;;;5129956;27;20027;-52
2021/03/25 08:40:59;;;;;;;122.20;51.92;;;9.80;99.90;;;;;;5115804;27;20039;-49
2021/03/25 08:44:09;;;;;;;119.35;50.90;;;9.90;99.90;;;;;;5129902;27;20156;-51
2021/03/25 08:46:50;;;;;;;111.88;50.55;;;10.00;99.90;;;;;;5096178;27;20572;-50
2021/03/25 08:49:32;;;;;;;115.60;50.70;;;10.00;99.90;;;;;;5130724;27;20092;-51
2021/03/25 08:52:01;;;;;;;122.75;52.33;;;10.10;99.90;;;;;;5126356;27;20118;-51
2021/03/25 08:54:36;;;;;;;123.05;53.10;;;10.20;99.90;;;;;;5121380;27;20059;-52
2021/03/25 08:57:16;;;;;;;109.70;50.85;;;10.30;99.90;;;;;;5122385;27;20047;-53
2021/03/25 09:00:01;;;;;;;110.18;50.72;;;10.40;99.90;;;;;;5125692;27;20032;-50
2021/03/25 09:02:37;;;;;;;106.20;49.10;;;10.40;99.90;;;;;;5128418;27;20876;-49
2021/03/25 09:05:18;;;;;;;110.18;49.40;;;10.40;99.90;;;;;;5125971;27;20053;-51
2021/03/25 09:07:45;;;;;;;100.50;47.75;;;10.40;99.90;;;;;;5122452;27;20164;-49
2021/03/25 09:10:22;;;;;;;110.70;48.05;;;10.50;99.90;;;;;;5120848;27;20063;-52
2021/03/25 09:12:47;;;;;;;107.82;48.92;;;10.60;99.90;;;;;;5128603;27;20620;-48
2021/03/25 09:15:14;;;;;;;107.65;47.20;;;10.70;99.90;;;;;;5128015;27;20115;-51
2021/03/25 09:17:51;;;;;;;104.03;47.83;;;10.80;99.90;;;;;;5123898;27;20023;-49
2021/03/25 09:20:26;;;;;;;94.47;45.00;;;10.90;99.90;;;;;;5123620;27;20038;-48
2021/03/25 09:22:56;;;;;;;;;;;10.90;99.90;;;;;;5125485;27;20076;-51
2021/03/25 09:25:27;;;;;;;103.80;44.58;;;11.00;99.90;;;;;;5126035;27;20402;-50
2021/03/25 09:28:19;;;;;;;98.28;46.80;;;11.10;99.90;;;;;;5119820;27;20480;-49
2021/03/25 09:31:06;;;;;;;97.35;46.53;;;11.20;99.90;;;;;;5128025;27;20397;-49
2021/03/25 09:33:37;;;;;;;91.65;46.17;;;11.30;99.90;;;;;;5124820;27;20027;-48
2021/03/25 09:36:18;;;;;;;96.70;42.05;;;11.30;99.90;;;;;;5109177;28;20028;-48
2021/03/25 09:39:12;;;;;;;93.20;45.17;;;11.30;99.90;;;;;;5123165;27;20030;-51
2021/03/25 09:41:41;;;;;;;103.13;45.83;;;11.40;99.90;;;;;;5120952;27;20081;-48
2021/03/25 09:44:19;;;;;;;96.15;44.60;;;11.50;99.90;;;;;;5128949;27;20583;-49
2021/03/25 09:46:54;;;;;;;89.47;43.42;;;11.60;99.90;;;;;;5099806;28;20027;-50
2021/03/25 09:52:18;;;;;;;96.25;42.90;;;11.90;99.90;;;;;;5130189;27;20100;-54
2021/03/25 09:54:47;;;;;;;92.85;43.05;;;12.20;99.90;;;;;;5106087;27;20054;-49
2021/03/25 10:00:02;;;;;;;98.97;43.83;;;12.60;99.90;;;;;;5123330;28;20031;-53
2021/03/25 10:02:37;;;;;;;88.55;43.95;;;12.80;99.90;;;;;;5121913;28;20031;-48
2021/03/25 10:05:31;;;;;;;98.45;46.70;;;12.90;99.90;;;;;;5125652;28;20113;-52
2021/03/25 10:08:08;;;;;;;95.38;47.00;;;12.90;99.90;;;;;;5124548;28;20023;-51
2021/03/25 10:10:45;;;;;;;84.13;43.10;;;12.70;99.90;;;;;;5122533;28;20024;-50
2021/03/25 10:13:16;;;;;;;90.97;42.97;;;12.60;99.90;;;;;;5120560;28;20031;-49
2021/03/25 10:15:59;;;;;;;94.38;43.83;;;12.70;99.90;;;;;;5123410;28;20060;-48
2021/03/25 10:18:24;;;;;;;95.55;44.28;;;12.70;99.90;;;;;;5127948;28;20027;-50
2021/03/25 10:21:08;;;;;;;91.32;45.20;;;13.10;99.90;;;;;;5124647;28;20030;-48
2021/03/25 10:23:48;;;;;;;92.38;42.65;;;13.40;99.90;;;;;;5123906;28;20083;-50
2021/03/25 10:26:26;;;;;;;89.32;42.50;;;13.50;99.90;;;;;;5124240;28;20418;-48
2021/03/25 10:29:02;;;;;;;82.90;40.53;;;13.80;99.90;;;;;;5125898;28;20026;-53
2021/03/25 10:31:40;;;;;;;77.18;40.63;;;14.00;99.90;;;;;;5128058;28;20027;-49
2021/03/25 10:34:13;;;;;;;92.07;40.72;;;14.30;99.90;;;;;;5122763;28;20493;-49
2021/03/25 10:36:48;;;;;;;79.13;40.63;;;14.00;99.90;;;;;;5126860;28;20031;-50
2021/03/25 10:39:28;;;;;;;77.57;40.10;;;14.10;99.90;;;;;;5130202;28;20050;-50
2021/03/25 10:41:54;;;;;;;81.00;40.58;;;14.30;99.90;;;;;;5123257;28;20481;-50
2021/03/25 10:44:33;;;;;;;81.10;40.22;;;14.40;99.90;;;;;;5116809;28;20080;-52
2021/03/25 10:47:05;;;;;;;87.97;40.42;;;14.30;99.90;;;;;;5121956;28;20016;-50
2021/03/25 10:49:52;;;;;;;84.38;40.13;;;14.40;99.90;;;;;;5121185;28;20028;-50
2021/03/25 10:52:35;;;;;;;87.05;40.58;;;14.50;99.90;;;;;;5124893;28;20092;-53
2021/03/25 10:55:22;;;;;;;78.57;38.65;;;14.60;99.90;;;;;;5130996;27;20027;-51
2021/03/25 10:57:52;;;;;;;82.90;38.38;;;14.50;99.90;;;;;;5126641;27;20052;-49
2021/03/25 11:00:31;;;;;;;82.18;37.75;;;14.40;99.90;;;;;;5123981;27;20527;-50
2021/03/25 11:02:58;;;;;;;72.40;35.00;;;14.50;99.90;;;;;;5132740;27;20031;-49
2021/03/25 11:05:30;;;;;;;64.75;30.38;;;14.50;99.90;;;;;;5128590;27;20077;-53
2021/03/25 11:07:57;;;;;;;58.92;26.73;;;14.50;99.90;;;;;;5130193;27;20044;-53
2021/03/25 11:10:22;;;;;;;50.95;25.25;;;14.30;99.90;;;;;;5128353;27;20450;-53
2021/03/25 11:13:16;;;;;;;58.05;28.98;;;14.10;99.90;;;;;;5127014;27;20094;-54
2021/03/25 11:15:59;;;;;;;54.92;28.00;;;14.10;99.90;;;;;;5125466;27;20169;-53
2021/03/25 11:18:25;;;;;;;64.40;30.70;;;14.30;99.90;;;;;;5126904;27;20034;-51
2021/03/25 11:20:52;;;;;;;57.97;30.38;;;14.50;99.90;;;;;;5131499;27;20028;-54
2021/03/25 11:23:21;;;;;;;64.28;32.20;;;14.30;99.90;;;;;;5125276;27;20054;-53
2021/03/25 11:25:52;;;;;;;61.55;29.10;;;14.20;99.90;;;;;;5132329;27;20034;-53
2021/03/25 11:28:18;;;;;;;69.60;31.20;;;14.20;99.90;;;;;;5125687;27;20027;-52
2021/03/25 11:30:53;;;;;;;65.03;31.08;;;14.30;99.90;;;;;;5125196;27;20485;-54
2021/03/25 11:33:28;;;;;;;65.18;32.35;;;14.20;99.90;;;;;;5130861;27;20493;-53
2021/03/25 11:35:56;;;;;;;66.40;32.45;;;14.20;99.90;;;;;;5125689;27;20027;-54
2021/03/25 11:38:24;;;;;;;59.10;30.23;;;14.40;99.90;;;;;;5129794;27;20404;-50
2021/03/25 11:40:50;;;;;;;64.13;34.00;;;14.80;99.90;;;;;;5124510;27;20034;-53
2021/03/25 11:43:19;;;;;;;60.80;31.77;;;14.80;99.90;;;;;;5128959;27;20033;-52
2021/03/25 11:45:50;;;;;;;74.50;34.38;;;15.10;99.90;;;;;;5128454;27;20438;-54
2021/03/25 11:48:27;;;;;;;73.28;33.63;;;15.30;99.90;;;;;;5129398;27;20371;-53
2021/03/25 11:50:55;;;;;;;64.10;33.95;;;15.60;99.90;;;;;;5123628;27;20125;-55
2021/03/25 11:53:37;;;;;;;63.67;34.25;;;15.70;99.90;;;;;;5131971;27;20035;-52
2021/03/25 11:56:04;;;;;;;75.78;37.83;;;15.90;99.90;;;;;;5124750;27;20038;-51
2021/03/25 11:58:30;;;;;;;72.78;35.13;;;16.00;99.90;;;;;;5126058;27;20505;-54
2021/03/25 12:01:03;;;;;;;68.90;34.47;;;15.70;99.90;;;;;;5122454;27;20104;-53
2021/03/25 12:03:49;;;;;;;73.53;37.00;;;15.80;99.90;;;;;;5127852;27;20113;-49
2021/03/25 12:06:20;;;;;;;73.28;33.63;;;15.80;99.90;;;;;;5119278;27;20059;-51
2021/03/25 12:08:46;;;;;;;67.70;37.08;;;15.60;99.90;;;;;;5125717;27;20489;-54
2021/03/25 12:11:12;;;;;;;74.60;36.50;;;15.40;99.90;;;;;;5123755;27;20030;-53
2021/03/25 12:13:38;;;;;;;74.85;36.88;;;15.50;99.90;;;;;;5128739;27;20024;-50
2021/03/25 12:16:05;;;;;;;69.47;35.58;;;15.30;99.90;;;;;;5123037;27;20072;-52
2021/03/25 12:18:34;;;;;;;68.30;36.47;;;15.50;99.90;;;;;;5120566;27;20027;-50
2021/03/25 12:21:06;;;;;;;65.82;34.33;;;15.60;99.90;;;;;;5126183;27;20023;-53
2021/03/25 12:23:34;;;;;;;74.47;36.40;;;15.80;99.90;;;;;;5131847;27;20049;-51
2021/03/25 12:26:05;;;;;;;69.88;33.92;;;16.00;99.90;;;;;;5126805;27;20055;-50
2021/03/25 12:28:31;;;;;;;66.50;35.20;;;16.10;99.90;;;;;;5129622;27;20063;-53
2021/03/25 12:30:56;;;;;;;69.88;33.35;;;16.10;99.90;;;;;;5123739;27;20027;-51
2021/03/25 12:33:29;;;;;;;66.18;34.65;;;16.10;99.90;;;;;;5130647;27;20534;-50
2021/03/25 12:35:56;;;;;;;71.85;34.90;;;16.20;99.90;;;;;;5128521;27;20575;-50
2021/03/25 12:38:22;;;;;;;55.63;31.42;;;16.40;99.90;;;;;;5129412;27;20034;-49
2021/03/25 12:40:48;;;;;;;63.65;29.17;;;16.50;99.90;;;;;;5124020;27;20031;-56
2021/03/25 12:43:21;;;;;;;50.83;27.67;;;16.60;99.90;;;;;;5127156;27;20036;-54
2021/03/25 12:45:50;;;;;;;56.53;26.77;;;16.60;99.90;;;;;;5130255;27;20488;-51
2021/03/25 12:48:20;;;;;;;54.90;25.30;;;16.30;99.90;;;;;;5120892;27;20023;-52
2021/03/25 12:50:46;;;;;;;48.67;25.10;;;16.30;99.90;;;;;;5120492;27;20027;-50
2021/03/25 12:53:12;;;;;;;49.00;25.30;;;16.20;99.90;;;;;;5130506;27;20038;-53
2021/03/25 12:55:38;;;;;;;55.80;23.77;;;16.20;99.90;;;;;;5117046;27;20493;-52
2021/03/25 12:58:05;;;;;;;50.92;25.30;;;16.10;99.90;;;;;;5123798;27;20047;-54
2021/03/25 13:00:39;;;;;;;41.35;21.73;;;16.20;99.90;;;;;;5124821;27;20110;-53
2021/03/25 13:03:05;;;;;;;40.42;21.60;;;16.30;99.90;;;;;;5129027;27;20023;-54
2021/03/25 13:05:31;;;;;;;44.30;19.90;;;16.30;99.90;;;;;;5125237;27;20046;-49
2021/03/25 13:07:57;;;;;;;42.50;21.60;;;16.20;99.90;;;;;;5120335;27;20023;-52
2021/03/25 13:10:26;;;;;;;41.65;20.98;;;16.00;99.90;;;;;;5119751;27;20031;-51
2021/03/25 13:12:52;;;;;;;35.65;17.60;;;15.90;99.90;;;;;;5121975;27;20031;-51
2021/03/25 13:15:19;;;;;;;36.22;17.40;;;15.90;99.90;;;;;;5120921;27;20160;-51
2021/03/25 13:17:45;;;;;;;32.47;17.00;;;15.70;99.90;;;;;;5119931;27;20446;-53
2021/03/25 13:20:12;;;;;;;30.60;16.25;;;15.60;99.90;;;;;;5119544;27;20027;-53